createdAt,value
2019-05-19T00:00:11.735Z,9.10
2019-05-19T00:02:41.053Z,9.00
2019-05-19T00:05:11.532Z,9.00
2019-05-19T00:07:40.681Z,8.90
2019-05-19T00:10:10.319Z,8.80
2019-05-19T00:12:39.451Z,8.80
2019-05-19T00:15:11.376Z,8.70
2019-05-19T00:17:45.807Z,8.70
2019-05-19T00:20:18.955Z,8.60
2019-05-19T00:22:48.588Z,8.60
2019-05-19T00:25:20.345Z,8.60
2019-05-19T00:27:50.422Z,8.60
2019-05-19T00:30:21.610Z,8.50
2019-05-19T00:32:51.579Z,8.60
2019-05-19T00:35:20.756Z,8.60
2019-05-19T00:37:51.700Z,8.70
2019-05-19T00:40:21.678Z,8.60
2019-05-19T00:42:51.631Z,8.50
2019-05-19T00:45:22.527Z,8.40
2019-05-19T00:47:51.748Z,8.30
2019-05-19T00:50:25.578Z,8.30
2019-05-19T00:52:56.530Z,8.20
2019-05-19T00:55:27.615Z,8.20
2019-05-19T00:57:58.905Z,8.10
2019-05-19T01:00:29.456Z,8.00
2019-05-19T01:02:59.004Z,8.00
2019-05-19T01:05:28.232Z,7.90
2019-05-19T01:07:57.958Z,7.90
2019-05-19T01:10:27.963Z,7.80
2019-05-19T01:12:58.215Z,7.80
2019-05-19T01:15:27.359Z,7.80
2019-05-19T01:17:57.927Z,7.70
2019-05-19T01:20:32.565Z,7.70
2019-05-19T01:23:02.572Z,7.70
2019-05-19T01:25:32.990Z,7.70
2019-05-19T01:28:02.565Z,7.70
2019-05-19T01:30:34.072Z,7.70
2019-05-19T01:33:06.487Z,7.70
2019-05-19T01:35:36.483Z,7.60
2019-05-19T01:38:05.689Z,7.70
2019-05-19T01:40:35.095Z,7.60
2019-05-19T01:43:06.149Z,7.60
2019-05-19T01:45:35.403Z,7.60
2019-05-19T01:48:04.593Z,7.60
2019-05-19T01:50:34.531Z,7.60
2019-05-19T01:53:04.739Z,7.60
2019-05-19T01:55:36.918Z,7.60
2019-05-19T01:58:07.607Z,7.60
2019-05-19T02:00:37.686Z,7.70
2019-05-19T02:03:12.446Z,7.70
2019-05-19T02:05:42.644Z,7.80
2019-05-19T02:08:12.943Z,7.80
2019-05-19T02:10:43.062Z,7.80
2019-05-19T02:13:12.974Z,7.80
2019-05-19T02:15:42.920Z,7.80
2019-05-19T02:18:12.442Z,7.80
2019-05-19T02:20:42.838Z,7.80
2019-05-19T02:23:13.256Z,7.90
2019-05-19T02:25:43.963Z,7.90
2019-05-19T02:28:13.204Z,8.00
2019-05-19T02:30:42.433Z,8.10
2019-05-19T02:33:13.112Z,8.20
2019-05-19T02:35:42.354Z,8.30
2019-05-19T02:38:11.568Z,8.30
2019-05-19T02:40:48.670Z,8.40
2019-05-19T02:43:18.462Z,8.50
2019-05-19T02:45:52.149Z,8.60
2019-05-19T02:48:23.684Z,8.70
2019-05-19T02:50:57.267Z,8.80
2019-05-19T02:53:28.218Z,8.80
2019-05-19T02:55:58.887Z,8.90
2019-05-19T02:58:28.915Z,8.90
2019-05-19T03:00:59.216Z,9.00
2019-05-19T03:03:30.088Z,9.00
2019-05-19T03:06:01.396Z,9.10
2019-05-19T03:08:31.635Z,9.10
2019-05-19T03:11:02.565Z,9.10
2019-05-19T03:13:33.589Z,9.10
2019-05-19T03:16:02.831Z,9.10
2019-05-19T03:18:32.371Z,9.20
2019-05-19T03:21:11.101Z,9.10
2019-05-19T03:23:33.352Z,9.10
2019-05-19T03:26:03.447Z,9.20
2019-05-19T03:28:34.478Z,9.20
2019-05-19T03:31:35.543Z,9.20
2019-05-19T03:34:06.249Z,9.20
2019-05-19T03:36:36.049Z,9.20
2019-05-19T03:39:07.519Z,9.30
2019-05-19T03:41:36.671Z,9.30
2019-05-19T03:44:05.806Z,9.30
2019-05-19T03:46:35.325Z,9.40
2019-05-19T03:49:05.071Z,9.50
2019-05-19T03:51:35.086Z,9.50
2019-05-19T03:54:05.158Z,9.50
2019-05-19T03:56:35.119Z,9.60
2019-05-19T03:59:06.018Z,9.60
2019-05-19T04:01:37.185Z,9.60
2019-05-19T04:04:07.201Z,9.50
2019-05-19T04:06:37.363Z,9.50
2019-05-19T04:09:09.617Z,9.60
2019-05-19T04:11:38.886Z,9.60
2019-05-19T04:14:10.341Z,9.60
2019-05-19T04:16:41.105Z,9.60
2019-05-19T04:19:10.273Z,9.70
2019-05-19T04:21:48.810Z,9.70
2019-05-19T04:24:10.334Z,9.70
2019-05-19T04:26:41.510Z,9.70
2019-05-19T04:29:10.793Z,9.80
2019-05-19T04:31:43.261Z,9.80
2019-05-19T04:34:13.277Z,9.70
2019-05-19T04:36:43.289Z,9.70
2019-05-19T04:39:13.479Z,9.80
2019-05-19T04:41:42.920Z,9.90
2019-05-19T04:44:12.969Z,9.90
2019-05-19T04:46:44.224Z,10.00
2019-05-19T04:49:14.244Z,10.20
2019-05-19T04:51:44.222Z,10.30
2019-05-19T04:54:14.310Z,10.40
2019-05-19T04:56:46.726Z,10.50
2019-05-19T04:59:20.160Z,10.60
2019-05-19T05:01:50.066Z,10.70
2019-05-19T05:04:20.693Z,10.70
2019-05-19T05:06:51.790Z,10.80
2019-05-19T05:09:21.507Z,10.90
2019-05-19T05:11:50.913Z,11.00
2019-05-19T05:14:24.123Z,11.20
2019-05-19T05:16:57.871Z,11.40
2019-05-19T05:19:28.863Z,11.60
2019-05-19T05:21:58.036Z,11.70
2019-05-19T05:24:28.647Z,12.00
2019-05-19T05:26:58.111Z,13.10
2019-05-19T05:29:29.311Z,14.50
2019-05-19T05:31:59.132Z,15.60
2019-05-19T05:34:29.183Z,16.60
2019-05-19T05:37:00.159Z,17.20
2019-05-19T05:39:29.317Z,17.50
2019-05-19T05:42:03.225Z,17.50
2019-05-19T05:44:32.655Z,17.30
2019-05-19T05:47:05.587Z,17.20
2019-05-19T05:49:35.647Z,16.90
2019-05-19T05:52:06.234Z,16.70
2019-05-19T05:54:35.350Z,16.60
2019-05-19T05:57:04.787Z,16.60
2019-05-19T05:59:34.215Z,16.30
2019-05-19T06:02:06.144Z,16.10
2019-05-19T06:04:35.311Z,15.80
2019-05-19T06:07:04.997Z,15.50
2019-05-19T06:09:34.216Z,15.40
2019-05-19T06:12:07.383Z,15.50
2019-05-19T06:14:36.507Z,15.40
2019-05-19T06:17:06.262Z,15.50
2019-05-19T06:19:35.500Z,15.50
2019-05-19T06:22:07.618Z,15.30
2019-05-19T06:24:37.671Z,15.30
2019-05-19T06:27:06.849Z,15.40
2019-05-19T06:29:36.017Z,15.60
2019-05-19T06:32:13.123Z,15.70
2019-05-19T06:34:42.263Z,15.90
2019-05-19T06:37:11.375Z,15.90
2019-05-19T06:39:41.322Z,15.80
2019-05-19T06:42:18.374Z,15.70
2019-05-19T06:44:47.526Z,15.60
2019-05-19T06:47:19.734Z,15.50
2019-05-19T06:49:48.956Z,15.20
2019-05-19T06:52:18.727Z,15.20
2019-05-19T06:54:49.479Z,15.10
2019-05-19T06:57:19.520Z,15.00
2019-05-19T06:59:50.082Z,14.90
2019-05-19T07:02:19.338Z,15.00
2019-05-19T07:04:49.463Z,15.20
2019-05-19T07:07:18.603Z,15.40
2019-05-19T07:09:58.289Z,15.50
2019-05-19T07:12:23.662Z,15.60
2019-05-19T07:14:52.766Z,15.70
2019-05-19T07:17:21.885Z,15.80
2019-05-19T07:19:51.027Z,15.90
2019-05-19T07:22:23.382Z,16.10
2019-05-19T07:25:03.299Z,16.20
2019-05-19T07:27:37.054Z,16.40
2019-05-19T07:30:09.646Z,16.70
2019-05-19T07:32:44.229Z,17.00
2019-05-19T07:35:13.777Z,17.10
2019-05-19T07:37:44.198Z,17.30
2019-05-19T07:40:14.722Z,17.30
2019-05-19T07:42:48.171Z,17.40
2019-05-19T07:45:18.077Z,17.50
2019-05-19T07:47:47.365Z,17.60
2019-05-19T07:50:16.485Z,17.60
2019-05-19T07:52:46.002Z,17.60
2019-05-19T07:55:15.595Z,17.80
2019-05-19T07:57:45.604Z,17.80
2019-05-19T08:00:18.499Z,17.90
2019-05-19T08:02:47.743Z,18.00
2019-05-19T08:05:17.735Z,18.20
2019-05-19T08:07:49.692Z,18.40
2019-05-19T08:10:21.572Z,18.40
2019-05-19T08:13:13.880Z,18.50
2019-05-19T08:15:44.752Z,18.30
2019-05-19T08:18:25.244Z,18.40
2019-05-19T08:20:56.558Z,18.70
2019-05-19T08:23:26.490Z,19.00
2019-05-19T08:26:04.522Z,18.90
2019-05-19T08:28:35.071Z,18.90
2019-05-19T08:31:08.371Z,18.70
2019-05-19T08:33:40.883Z,18.50
2019-05-19T08:36:10.096Z,18.50
2019-05-19T08:38:45.671Z,18.70
2019-05-19T08:41:23.459Z,19.10
2019-05-19T08:43:55.343Z,19.10
2019-05-19T08:46:25.096Z,19.10
2019-05-19T08:49:00.295Z,19.30
2019-05-19T08:51:31.562Z,19.00
2019-05-19T08:54:13.853Z,19.20
2019-05-19T08:56:32.704Z,19.40
2019-05-19T08:59:02.010Z,19.70
2019-05-19T09:01:34.891Z,20.00
2019-05-19T09:04:04.623Z,20.00
2019-05-19T09:06:34.667Z,20.10
2019-05-19T09:09:05.457Z,20.60
2019-05-19T09:11:34.610Z,20.60
2019-05-19T09:14:03.714Z,21.10
2019-05-19T09:16:33.215Z,21.40
2019-05-19T09:19:03.134Z,21.70
2019-05-19T09:21:32.255Z,21.80
2019-05-19T09:24:01.462Z,21.60
2019-05-19T09:26:30.634Z,21.50
2019-05-19T09:28:59.870Z,21.30
2019-05-19T09:31:29.026Z,21.40
2019-05-19T09:33:58.186Z,21.20
2019-05-19T09:36:27.358Z,21.00
2019-05-19T09:38:56.473Z,20.80
2019-05-19T09:41:25.682Z,20.90
2019-05-19T09:43:54.839Z,21.10
2019-05-19T09:46:23.960Z,21.20
2019-05-19T09:49:12.140Z,21.10
2019-05-19T09:51:41.258Z,21.20
2019-05-19T09:54:10.379Z,21.20
2019-05-19T09:56:39.502Z,21.10
2019-05-19T09:59:10.152Z,21.30
2019-05-19T10:01:39.262Z,21.10
2019-05-19T10:04:08.397Z,21.20
2019-05-19T10:06:37.564Z,21.20
2019-05-19T10:10:00.566Z,21.20
2019-05-19T10:12:30.043Z,21.20
2019-05-19T10:14:59.262Z,21.10
2019-05-19T10:17:28.871Z,21.30
2019-05-19T10:19:58.156Z,21.50
2019-05-19T10:22:27.315Z,21.70
2019-05-19T10:25:18.267Z,22.00
2019-05-19T10:27:27.396Z,22.20
2019-05-19T10:29:59.822Z,22.20
2019-05-19T10:32:31.199Z,22.10
2019-05-19T10:35:01.213Z,22.00
2019-05-19T10:37:31.386Z,21.80
2019-05-19T10:40:00.503Z,21.60
2019-05-19T10:42:29.676Z,21.60
2019-05-19T10:44:58.836Z,21.80
2019-05-19T10:47:28.006Z,21.70
2019-05-19T10:49:57.615Z,21.80
2019-05-19T10:52:27.107Z,21.80
2019-05-19T10:54:58.471Z,21.70
2019-05-19T10:57:29.300Z,21.80
2019-05-19T10:59:59.871Z,21.50
2019-05-19T11:02:30.336Z,21.70
2019-05-19T11:04:59.566Z,21.90
2019-05-19T11:07:34.034Z,22.10
2019-05-19T11:10:04.043Z,22.00
2019-05-19T11:12:34.900Z,21.80
2019-05-19T11:15:05.098Z,21.50
2019-05-19T11:17:38.151Z,21.40
2019-05-19T11:20:12.621Z,21.70
2019-05-19T11:22:41.882Z,22.10
2019-05-19T11:25:12.341Z,22.20
2019-05-19T11:27:52.791Z,22.30
2019-05-19T11:30:22.681Z,22.40
2019-05-19T11:32:53.207Z,22.10
2019-05-19T11:35:24.647Z,21.90
2019-05-19T11:37:55.263Z,21.30
2019-05-19T11:40:24.699Z,20.90
2019-05-19T11:42:54.991Z,20.80
2019-05-19T11:45:30.671Z,21.20
2019-05-19T11:48:01.367Z,21.50
2019-05-19T11:50:35.167Z,21.80
2019-05-19T11:53:08.835Z,22.10
2019-05-19T11:55:41.095Z,22.40
2019-05-19T11:58:10.739Z,22.60
2019-05-19T12:01:03.757Z,22.70
2019-05-19T12:03:34.995Z,22.30
2019-05-19T12:06:05.057Z,22.00
2019-05-19T12:08:35.184Z,21.80
2019-05-19T12:11:08.271Z,21.60
2019-05-19T12:13:37.832Z,21.60
2019-05-19T12:16:09.547Z,21.50
2019-05-19T12:18:40.613Z,21.60
2019-05-19T12:21:10.975Z,21.50
2019-05-19T12:23:41.048Z,21.30
2019-05-19T12:26:22.656Z,21.10
2019-05-19T12:28:45.186Z,20.80
2019-05-19T12:31:15.703Z,20.90
2019-05-19T12:33:51.899Z,21.10
2019-05-19T12:36:17.249Z,21.50
2019-05-19T12:38:51.132Z,22.00
2019-05-19T12:41:21.744Z,22.60
2019-05-19T12:43:51.018Z,22.70
2019-05-19T12:46:37.943Z,22.40
2019-05-19T12:49:09.356Z,22.00
2019-05-19T12:51:38.771Z,21.70
2019-05-19T12:54:08.013Z,21.70
2019-05-19T12:56:40.192Z,21.80
2019-05-19T12:59:09.653Z,22.20
2019-05-19T13:01:38.981Z,22.70
2019-05-19T13:04:08.209Z,23.00
2019-05-19T13:06:39.565Z,23.30
2019-05-19T13:09:09.681Z,23.80
2019-05-19T13:11:41.224Z,23.70
2019-05-19T13:14:12.105Z,23.50
2019-05-19T13:16:43.096Z,23.00
2019-05-19T13:19:15.655Z,22.60
2019-05-19T13:21:45.713Z,22.00
2019-05-19T13:24:14.872Z,21.50
2019-05-19T13:26:56.241Z,21.30
2019-05-19T13:29:15.025Z,21.40
2019-05-19T13:31:46.985Z,21.30
2019-05-19T13:34:16.247Z,21.30
2019-05-19T13:36:45.709Z,21.20
2019-05-19T13:39:15.330Z,21.40
2019-05-19T13:41:44.672Z,21.80
2019-05-19T13:44:14.202Z,21.90
2019-05-19T13:46:44.483Z,21.90
2019-05-19T13:49:13.740Z,22.20
2019-05-19T13:51:43.724Z,22.40
2019-05-19T13:54:19.078Z,22.40
2019-05-19T13:56:48.366Z,22.50
2019-05-19T13:59:17.781Z,22.40
2019-05-19T14:01:47.295Z,22.40
2019-05-19T14:04:20.141Z,22.50
2019-05-19T14:06:49.307Z,22.40
2019-05-19T14:09:18.667Z,22.10
2019-05-19T14:11:49.323Z,21.70
2019-05-19T14:14:18.634Z,21.50
2019-05-19T14:16:48.248Z,21.30
2019-05-19T14:19:17.386Z,21.20
2019-05-19T14:21:47.687Z,21.10
2019-05-19T14:24:21.431Z,21.00
2019-05-19T14:27:00.043Z,21.00
2019-05-19T14:29:29.945Z,21.00
2019-05-19T14:31:59.991Z,20.90
2019-05-19T14:34:33.843Z,20.80
2019-05-19T14:37:10.368Z,20.80
2019-05-19T14:39:40.955Z,20.70
2019-05-19T14:42:15.874Z,20.80
2019-05-19T14:44:47.896Z,20.70
2019-05-19T14:47:17.964Z,20.70
2019-05-19T14:49:50.423Z,20.80
2019-05-19T14:52:19.941Z,20.90
2019-05-19T14:54:50.575Z,21.00
2019-05-19T14:57:22.556Z,21.10
2019-05-19T14:59:54.093Z,21.30
2019-05-19T15:02:30.082Z,21.50
2019-05-19T15:05:02.378Z,21.50
2019-05-19T15:08:19.748Z,21.70
2019-05-19T15:10:55.109Z,22.00
2019-05-19T15:13:32.543Z,22.40
2019-05-19T15:16:24.617Z,22.60
2019-05-19T15:18:54.291Z,22.70
2019-05-19T15:21:25.885Z,22.80
2019-05-19T15:23:59.033Z,22.70
2019-05-19T15:26:28.982Z,22.80
2019-05-19T15:29:07.879Z,22.70
2019-05-19T15:32:00.764Z,22.60
2019-05-19T15:34:34.813Z,22.50
2019-05-19T15:37:22.368Z,22.40
2019-05-19T15:40:44.148Z,22.40
2019-05-19T15:43:18.203Z,22.10
2019-05-19T15:45:48.162Z,21.80
2019-05-19T15:48:39.596Z,21.60
2019-05-19T15:51:28.956Z,21.50
2019-05-19T15:54:05.762Z,21.30
2019-05-19T15:57:05.265Z,21.30
2019-05-19T15:59:38.083Z,21.30
2019-05-19T16:02:35.811Z,21.30
2019-05-19T16:08:18.544Z,21.40
2019-05-19T16:10:50.119Z,21.30
2019-05-19T16:13:45.536Z,21.30
2019-05-19T16:16:29.163Z,21.40
2019-05-19T16:19:00.710Z,21.40
2019-05-19T16:24:37.604Z,21.40
2019-05-19T16:27:08.585Z,21.40
2019-05-19T16:29:56.921Z,21.40
2019-05-19T16:32:27.965Z,21.40
2019-05-19T16:34:57.233Z,21.30
2019-05-19T16:37:30.210Z,21.30
2019-05-19T16:39:59.418Z,21.30
2019-05-19T16:42:29.471Z,21.20
2019-05-19T16:44:58.667Z,21.10
2019-05-19T16:47:31.320Z,21.00
2019-05-19T16:50:03.446Z,20.90
2019-05-19T16:52:38.013Z,20.80
2019-05-19T16:55:27.245Z,20.80
2019-05-19T16:58:02.841Z,20.70
2019-05-19T17:00:51.092Z,20.60
2019-05-19T17:03:25.087Z,20.50
2019-05-19T17:05:56.688Z,20.40
2019-05-19T17:18:55.270Z,20.00
2019-05-19T17:21:25.322Z,20.00
2019-05-19T17:24:06.551Z,19.80
2019-05-19T17:26:38.274Z,19.60
2019-05-19T17:29:12.168Z,19.50
2019-05-19T17:32:19.610Z,19.30
2019-05-19T17:39:17.354Z,18.80
2019-05-19T17:59:44.551Z,17.70
2019-05-19T18:05:17.920Z,17.60
2019-05-19T18:07:49.330Z,17.40
2019-05-19T18:10:18.459Z,17.30
2019-05-19T18:12:47.700Z,17.20
2019-05-19T18:15:17.967Z,17.10
2019-05-19T18:17:47.764Z,17.10
2019-05-19T18:20:23.773Z,17.00
2019-05-19T18:23:32.230Z,16.90
2019-05-19T18:29:31.388Z,16.70
2019-05-19T18:32:39.005Z,16.60
2019-05-19T18:35:21.483Z,16.50
2019-05-19T18:37:54.084Z,16.40
2019-05-19T18:40:27.716Z,16.30
2019-05-19T18:43:23.995Z,16.30
2019-05-19T18:45:55.688Z,16.30
2019-05-19T18:48:35.860Z,16.20
2019-05-19T18:51:06.352Z,16.10
2019-05-19T18:53:36.765Z,16.10
2019-05-19T18:56:08.112Z,16.00
2019-05-19T18:58:37.889Z,16.00
2019-05-19T19:01:07.846Z,16.00
2019-05-19T19:03:37.083Z,15.90
2019-05-19T19:06:06.232Z,15.90
2019-05-19T19:08:38.005Z,15.90
2019-05-19T19:11:08.896Z,15.80
2019-05-19T19:14:19.267Z,15.80
2019-05-19T19:17:16.811Z,15.70
2019-05-19T19:19:46.321Z,15.70
2019-05-19T19:22:18.047Z,15.60
2019-05-19T19:24:47.816Z,15.60
2019-05-19T19:27:16.982Z,15.60
2019-05-19T19:30:00.606Z,15.50
2019-05-19T19:36:01.242Z,15.40
2019-05-19T19:38:33.259Z,15.30
2019-05-19T19:41:04.379Z,15.20
2019-05-19T19:43:33.571Z,14.20
2019-05-19T19:46:16.550Z,15.00
2019-05-19T19:48:38.799Z,14.90
2019-05-19T19:51:07.994Z,14.90
2019-05-19T20:04:26.799Z,14.50
2019-05-19T20:06:55.907Z,14.50
2019-05-19T20:09:25.027Z,14.30
